Terminal Aerodrome Forecast
Issued by NWS Mobile, AL

Current Version | Previous Version | Text Only | Print | Product List | Glossary On
Versions: 1 2 3 4 5 6 7 8 9 10 11 12 13 14 15 16 17 18 19 20 21 22 23 24 25 26 27
000
FTUS44 KMOB 270524
TAFPNS
TAF
KPNS 270524Z 2706/2806 12007KT P6SM SKC
     FM271500 15011KT P6SM OVC050
     FM271800 16013G21KT P6SM BKN030 PROB30 2718/2722 4SM SHRA
      BKN020
     FM280300 14006KT P6SM BKN005=

USA.gov is the U.S. government's official web portal to all federal, state and local government web resources and services.